Time;durP1;ratioP1;P1;durP2;ratioP2;P2;SDS_P1;SDS_P2;PMS_P1;PMS_P2;Temp;Humidity;BMP_temperature;BMP_pressure;BME280_temperature;BME280_humidity;BME280_pressure;Samples;Min_cycle;Max_cycle;Signal;HPM_P1;HPM_P2
2023/04/07 00:00:32;;;;;;;11.55;3.50;;;;;;;13.83;100.00;100930.22;2081032;28;20403;-73
2023/04/07 00:01:54;;;;;;;13.95;3.50;;;;;;;13.80;100.00;100929.28;2080725;28;20809;-73
2023/04/07 00:03:16;;;;;;;12.68;2.90;;;;;;;13.74;100.00;100927.50;2081901;28;20114;-73
2023/04/07 00:04:38;;;;;;;8.18;3.05;;;;;;;13.69;100.00;100925.72;2074426;28;20057;-73
2023/04/07 00:06:00;;;;;;;9.35;3.30;;;;;;;13.63;100.00;100930.97;2077610;28;20069;-73
2023/04/07 00:07:21;;;;;;;9.55;2.72;;;;;;;13.55;100.00;100931.81;2080975;28;20045;-73
2023/04/07 00:08:45;;;;;;;13.07;2.50;;;;;;;13.51;100.00;100927.38;2078078;28;20521;-73
2023/04/07 00:10:07;;;;;;;7.07;2.40;;;;;;;13.48;100.00;100926.47;2078225;28;20048;-73
2023/04/07 00:11:30;;;;;;;10.27;3.75;;;;;;;13.46;100.00;100929.09;2075146;28;20405;-73
2023/04/07 00:12:51;;;;;;;14.73;7.47;;;;;;;13.45;100.00;100927.34;2070146;28;20060;-74
2023/04/07 00:14:14;;;;;;;14.20;7.05;;;;;;;13.42;100.00;100929.97;2077137;28;20046;-73
2023/04/07 00:15:35;;;;;;;13.30;4.85;;;;;;;13.35;100.00;100928.16;2076003;28;20394;-73
2023/04/07 00:16:58;;;;;;;9.32;3.92;;;;;;;13.29;100.00;100933.41;2076578;28;20064;-73
2023/04/07 00:18:20;;;;;;;10.27;3.13;;;;;;;13.28;100.00;100928.09;2069673;28;20041;-73
2023/04/07 00:19:42;;;;;;;8.93;2.78;;;;;;;13.26;100.00;100936.03;2070193;28;20053;-74
2023/04/07 00:21:04;;;;;;;;;;;;;;;13.23;100.00;100936.03;2070251;28;20084;-73
2023/04/07 00:22:26;;;;;;;8.73;2.30;;;;;;;13.21;100.00;100937.75;2070644;28;19932;-73
2023/04/07 00:23:51;;;;;;;9.18;2.25;;;;;;;13.23;100.00;100928.06;2077076;28;20053;-73
2023/04/07 00:25:12;;;;;;;9.55;2.15;;;;;;;13.26;100.00;100937.81;2078146;28;20064;-73
2023/04/07 00:26:35;;;;;;;12.90;2.10;;;;;;;13.29;100.00;100937.81;2076144;28;20037;-74
2023/04/07 00:27:56;;;;;;;12.05;3.25;;;;;;;13.29;100.00;100938.72;2070989;28;20042;-73
2023/04/07 00:29:18;;;;;;;8.30;3.00;;;;;;;13.25;100.00;100939.56;2069004;28;20104;-74
2023/04/07 00:30:39;;;;;;;13.70;3.72;;;;;;;13.21;100.00;100940.41;2074942;28;20049;-73
2023/04/07 00:32:02;;;;;;;14.07;4.20;;;;;;;13.17;100.00;100938.63;2076715;28;20669;-73
2023/04/07 00:33:24;;;;;;;10.65;3.63;;;;;;;13.19;100.00;100944.84;2075622;28;20144;-73
2023/04/07 00:34:46;;;;;;;14.55;3.75;;;;;;;13.20;100.00;100941.28;2069978;28;20053;-73
2023/04/07 00:36:08;;;;;;;10.48;3.88;;;;;;;13.12;100.00;100940.31;2069918;28;20048;-73
2023/04/07 00:37:30;;;;;;;15.18;9.35;;;;;;;13.07;100.00;100937.63;2067373;28;20060;-73
2023/04/07 00:38:54;;;;;;;10.15;3.53;;;;;;;13.11;100.00;100935.91;2073971;28;20038;-73
2023/04/07 00:40:16;;;;;;;12.13;4.50;;;;;;;13.14;100.00;100941.25;2078321;28;20045;-73
2023/04/07 00:41:39;;;;;;;10.15;3.97;;;;;;;13.13;100.00;100940.34;2077746;28;20120;-73
2023/04/07 00:43:00;;;;;;;9.65;3.92;;;;;;;13.11;100.00;100930.59;2065081;28;20042;-73
2023/04/07 00:44:23;;;;;;;13.15;2.65;;;;;;;13.12;100.00;100940.31;2069509;28;20050;-73
2023/04/07 00:45:44;;;;;;;10.60;2.42;;;;;;;13.14;100.00;100935.94;2067295;28;20136;-74
2023/04/07 00:47:06;;;;;;;7.40;2.55;;;;;;;13.16;100.00;100935.09;2075315;28;20052;-73
2023/04/07 00:48:29;;;;;;;5.18;2.28;;;;;;;13.20;100.00;100932.44;2073417;28;20045;-72
2023/04/07 00:49:52;;;;;;;12.40;2.92;;;;;;;13.19;100.00;100934.22;2069699;28;20050;-73
2023/04/07 00:51:15;;;;;;;10.38;2.58;;;;;;;13.19;100.00;100934.22;2061706;28;20097;-73
2023/04/07 00:52:38;;;;;;;7.72;2.60;;;;;;;13.21;100.00;100929.81;2073859;28;20144;-72
2023/04/07 00:54:02;;;;;;;8.45;2.55;;;;;;;13.24;100.00;100934.25;2071882;28;20077;-73
2023/04/07 00:55:24;;;;;;;7.95;2.30;;;;;;;13.24;100.00;100926.31;2069975;28;20075;-72
2023/04/07 00:56:47;;;;;;;11.93;2.63;;;;;;;13.24;100.00;100928.97;2076666;28;20050;-73
2023/04/07 00:58:09;;;;;;;6.13;2.20;;;;;;;13.26;100.00;100922.78;2069531;28;20045;-73
2023/04/07 00:59:33;;;;;;;9.52;2.60;;;;;;;13.25;100.00;100923.66;2068824;28;20096;-73
2023/04/07 01:01:03;;;;;;;10.55;3.13;;;;;;;13.26;100.00;100925.41;2066879;28;20442;-73
2023/04/07 01:02:33;;;;;;;8.73;2.65;;;;;;;13.25;100.00;100923.66;2067533;28;20041;-73
2023/04/07 01:04:01;;;;;;;9.85;2.10;;;;;;;13.25;100.00;100913.06;2076833;28;20072;-72
2023/04/07 01:05:31;;;;;;;8.90;2.33;;;;;;;13.23;100.00;100914.81;2072454;28;20104;-72
2023/04/07 01:06:58;;;;;;;10.85;2.20;;;;;;;13.20;100.00;100916.53;2062523;28;20054;-72
2023/04/07 01:08:33;;;;;;;11.20;2.63;;;;;;;13.11;100.00;100912.03;2077848;28;20138;-72
2023/04/07 01:10:03;;;;;;;12.73;5.20;;;;;;;13.03;100.00;100914.63;2064041;28;20050;-72
2023/04/07 01:11:37;;;;;;;12.60;5.55;;;;;;;12.99;100.00;100917.25;2074061;28;20045;-73
2023/04/07 01:13:04;;;;;;;15.65;11.45;;;;;;;12.96;100.00;100917.22;2071347;28;20767;-73
2023/04/07 01:14:35;;;;;;;15.32;10.05;;;;;;;12.93;100.00;100919.84;2069909;28;20050;-73
2023/04/07 01:16:17;;;;;;;20.00;10.43;;;;;;;12.89;100.00;100908.31;2072279;28;20045;-73
2023/04/07 01:17:47;;;;;;;15.38;10.93;;;;;;;12.84;100.00;100915.34;2068485;28;20046;-73
2023/04/07 01:19:16;;;;;;;15.88;9.57;;;;;;;12.82;100.00;100918.84;2058631;28;20085;-73
2023/04/07 01:20:46;;;;;;;14.98;9.88;;;;;;;12.70;100.00;100916.97;2069090;28;20111;-73
2023/04/07 01:22:11;;;;;;;16.25;9.60;;;;;;;12.61;100.00;100920.41;2076836;28;20604;-73
2023/04/07 01:24:00;;;;;;;15.35;8.82;;;;;;;12.58;100.00;100916.88;2061785;28;20082;-73
2023/04/07 01:25:35;;;;;;;18.02;9.57;;;;;;;12.51;100.00;100922.97;2078087;28;20069;-72
2023/04/07 01:27:04;;;;;;;20.70;18.63;;;;;;;12.42;100.00;100918.47;2072270;28;20042;-73
2023/04/07 01:28:50;;;;;;;13.65;8.77;;;;;;;12.44;100.00;100914.06;2068257;28;20057;-73
2023/04/07 01:30:16;;;;;;;10.30;5.28;;;;;;;12.46;100.00;100922.03;2071928;28;20045;-72
2023/04/07 01:31:41;;;;;;;11.50;4.80;;;;;;;12.43;100.00;100919.34;2062089;28;20553;-72
2023/04/07 01:33:05;;;;;;;11.05;6.82;;;;;;;12.38;100.00;100914.00;2073063;28;20112;-72
2023/04/07 01:34:31;;;;;;;10.40;6.03;;;;;;;12.38;100.00;100914.00;2055085;28;20142;-73
2023/04/07 01:35:54;;;;;;;10.38;4.70;;;;;;;12.38;100.00;100917.56;2065909;28;20500;-72
2023/04/07 01:37:17;;;;;;;10.80;4.00;;;;;;;12.37;100.00;100917.53;2071280;28;20092;-73
2023/04/07 01:38:39;;;;;;;7.70;2.67;;;;;;;12.34;100.00;100906.91;2076790;28;20050;-72
2023/04/07 01:40:03;;;;;;;9.02;2.88;;;;;;;12.33;100.00;100907.78;2069231;28;20054;-73
2023/04/07 01:41:26;;;;;;;9.00;3.17;;;;;;;12.30;100.00;100906.00;2073605;28;20041;-73
2023/04/07 01:42:50;;;;;;;10.55;3.42;;;;;;;12.30;100.00;100910.38;2066929;28;20588;-72
2023/04/07 01:44:13;;;;;;;6.90;3.30;;;;;;;12.27;100.00;100913.03;2075077;28;20119;-73
2023/04/07 01:45:39;;;;;;;8.60;3.47;;;;;;;12.25;100.00;100905.06;2061551;28;20529;-72
2023/04/07 01:47:02;;;;;;;8.70;3.58;;;;;;;12.23;100.00;100911.19;2063812;28;20065;-72
2023/04/07 01:48:24;;;;;;;9.95;2.80;;;;;;;12.21;100.00;100923.50;2074971;28;20148;-73
2023/04/07 01:49:48;;;;;;;9.63;2.72;;;;;;;12.17;100.00;100925.25;2071786;28;20064;-73
2023/04/07 01:51:16;;;;;;;8.50;3.28;;;;;;;12.12;100.00;100921.66;2061381;28;20041;-73
2023/04/07 01:52:39;;;;;;;8.25;3.03;;;;;;;11.88;100.00;100924.03;2065392;28;20052;-72
2023/04/07 01:54:01;;;;;;;10.48;2.80;;;;;;;11.67;100.00;100923.69;2074222;28;20100;-73
2023/04/07 01:55:26;;;;;;;13.40;6.35;;;;;;;11.58;100.00;100921.81;2062954;28;20084;-73
2023/04/07 01:56:57;;;;;;;9.27;4.70;;;;;;;11.63;100.00;100929.78;2075205;28;20057;-73
2023/04/07 01:58:19;;;;;;;8.60;3.63;;;;;;;11.73;100.00;100929.97;2069269;28;20575;-72
2023/04/07 01:59:44;;;;;;;13.57;5.30;;;;;;;11.75;100.00;100930.88;2065407;28;20398;-73
2023/04/07 02:01:08;;;;;;;9.07;5.35;;;;;;;11.72;100.00;100928.19;2061223;28;20046;-72
2023/04/07 02:02:30;;;;;;;10.80;4.28;;;;;;;11.71;100.00;100930.78;2067102;28;20141;-73
2023/04/07 02:03:56;;;;;;;8.32;4.38;;;;;;;11.74;100.00;100929.13;2060888;28;20070;-72
2023/04/07 02:05:20;;;;;;;10.07;4.70;;;;;;;11.78;100.00;100933.59;2067676;28;20053;-73
2023/04/07 02:06:48;;;;;;;12.70;5.38;;;;;;;11.82;100.00;100937.13;2062417;28;20050;-73
2023/04/07 02:08:16;;;;;;;11.82;5.38;;;;;;;11.81;100.00;100941.56;2068769;28;20053;-73
2023/04/07 02:09:41;;;;;;;13.48;5.65;;;;;;;11.82;100.00;100935.38;2075815;28;20045;-73
2023/04/07 02:11:06;;;;;;;11.00;5.20;;;;;;;11.79;100.00;100937.13;2069523;28;20485;-73
2023/04/07 02:12:32;;;;;;;9.57;4.85;;;;;;;11.78;100.00;100927.41;2067469;28;20066;-72
2023/04/07 02:14:08;;;;;;;10.52;5.50;;;;;;;11.78;100.00;100936.22;2071532;28;20555;-73
2023/04/07 02:15:45;;;;;;;8.75;5.30;;;;;;;11.74;100.00;100937.06;2069413;28;20102;-73
2023/04/07 02:17:11;;;;;;;12.00;4.13;;;;;;;11.73;100.00;100932.59;2061370;28;20057;-72
2023/04/07 02:18:33;;;;;;;9.55;3.20;;;;;;;11.72;100.00;100933.47;2066312;28;20538;-73
2023/04/07 02:19:58;;;;;;;11.52;3.67;;;;;;;11.68;100.00;100931.66;2066474;28;20092;-73
2023/04/07 02:21:21;;;;;;;8.02;2.92;;;;;;;11.65;100.00;100934.25;2073123;28;20057;-73
2023/04/07 02:22:44;;;;;;;9.95;3.17;;;;;;;11.66;100.00;100938.66;2077590;28;20513;-73
2023/04/07 02:24:07;;;;;;;5.80;3.00;;;;;;;11.66;100.00;100941.31;2070888;28;20034;-73
2023/04/07 02:25:31;;;;;;;6.97;3.20;;;;;;;11.67;100.00;100939.56;2068074;28;20081;-72
2023/04/07 02:26:53;;;;;;;11.43;5.53;;;;;;;11.57;100.00;100939.41;2075291;28;20045;-73
2023/04/07 02:28:16;;;;;;;12.43;5.70;;;;;;;11.47;100.00;100934.88;2074111;28;20037;-73
2023/04/07 02:29:41;;;;;;;18.52;10.85;;;;;;;11.43;100.00;100933.03;2068879;28;20509;-72
2023/04/07 02:31:02;;;;;;;20.63;15.10;;;;;;;11.40;100.00;100935.66;2066778;28;20647;-73
2023/04/07 02:32:26;;;;;;;18.48;16.33;;;;;;;11.41;100.00;100939.19;2066152;28;20148;-72
2023/04/07 02:33:47;;;;;;;25.33;22.85;;;;;;;11.39;100.00;100936.50;2065345;28;20136;-72
2023/04/07 02:35:10;;;;;;;18.60;15.50;;;;;;;11.33;100.00;100940.81;2066478;28;20605;-73
2023/04/07 02:36:32;;;;;;;14.70;8.27;;;;;;;11.29;100.00;100934.59;2065832;28;20396;-72
2023/04/07 02:37:54;;;;;;;14.18;10.75;;;;;;;11.27;100.00;100935.44;2066200;28;20058;-72
2023/04/07 02:39:17;;;;;;;18.95;11.48;;;;;;;11.26;100.00;100937.19;2065665;28;20042;-72
2023/04/07 02:40:39;;;;;;;16.85;9.27;;;;;;;11.26;100.00;100934.56;2068508;28;20406;-72
2023/04/07 02:42:01;;;;;;;19.30;12.93;;;;;;;11.25;100.00;100940.69;2074537;28;20456;-73
2023/04/07 02:43:24;;;;;;;15.65;10.93;;;;;;;11.26;100.00;100941.59;2071627;28;20518;-72
2023/04/07 02:44:47;;;;;;;22.13;12.45;;;;;;;11.27;100.00;100938.97;2066177;28;20038;-72
2023/04/07 02:46:09;;;;;;;11.68;9.82;;;;;;;11.24;100.00;100943.31;2073545;28;20045;-72
2023/04/07 02:47:33;;;;;;;16.70;8.80;;;;;;;11.17;100.00;100937.03;2069262;28;20049;-73
2023/04/07 02:48:55;;;;;;;17.63;10.30;;;;;;;11.14;100.00;100937.91;2069120;28;20136;-72
2023/04/07 02:50:16;;;;;;;13.93;7.20;;;;;;;11.13;100.00;100940.50;2062022;28;20141;-72
2023/04/07 02:51:39;;;;;;;15.52;7.43;;;;;;;11.13;100.00;100945.78;2060334;28;20050;-73
2023/04/07 02:53:02;;;;;;;13.60;9.23;;;;;;;11.14;100.00;100945.81;2058112;28;20240;-73
2023/04/07 02:54:24;;;;;;;12.98;7.80;;;;;;;11.14;100.00;100943.19;2059138;28;20046;-72
2023/04/07 02:55:46;;;;;;;16.00;8.90;;;;;;;11.14;100.00;100950.22;2070489;28;20485;-72
2023/04/07 02:57:09;;;;;;;15.00;7.78;;;;;;;11.11;100.00;100951.03;2070592;28;20715;-72
2023/04/07 02:58:31;;;;;;;12.95;7.22;;;;;;;11.11;100.00;100943.13;2063072;28;20077;-72
2023/04/07 02:59:54;;;;;;;7.85;4.20;;;;;;;11.12;100.00;100947.53;2075456;28;20037;-72
2023/04/07 03:01:18;;;;;;;9.60;4.45;;;;;;;11.10;100.00;100943.97;2071008;28;20069;-73
2023/04/07 03:02:41;;;;;;;10.68;3.45;;;;;;;11.03;100.00;100949.13;2084359;28;20048;-72
2023/04/07 03:04:04;;;;;;;9.13;3.17;;;;;;;10.90;100.00;100953.31;2066731;28;20141;-72
2023/04/07 03:05:25;;;;;;;9.95;3.03;;;;;;;10.84;100.00;100947.03;2067549;28;20052;-72
2023/04/07 03:06:47;;;;;;;8.30;2.90;;;;;;;10.85;100.00;100951.47;2065483;28;20509;-73
2023/04/07 03:08:10;;;;;;;7.22;3.33;;;;;;;10.82;100.00;100959.34;2066863;28;20042;-73
2023/04/07 03:09:33;;;;;;;8.10;2.67;;;;;;;10.76;100.00;100954.84;2068042;28;20568;-72
2023/04/07 03:10:55;;;;;;;7.72;3.58;;;;;;;10.80;100.00;100956.69;2067218;28;20559;-72
2023/04/07 03:12:22;;;;;;;9.73;3.50;;;;;;;10.80;100.00;100959.31;2077146;28;20420;-73
2023/04/07 03:13:44;;;;;;;11.25;3.72;;;;;;;10.82;100.00;100951.44;2081209;28;20476;-72
2023/04/07 03:15:07;;;;;;;9.52;3.78;;;;;;;10.85;100.00;100951.47;2067714;28;20096;-72
2023/04/07 03:16:32;;;;;;;7.15;2.65;;;;;;;10.87;100.00;100950.63;2070087;28;20451;-72
2023/04/07 03:18:13;;;;;;;6.57;2.42;;;;;;;10.85;100.00;100948.81;2064289;28;20046;-72
2023/04/07 03:19:37;;;;;;;10.70;3.25;;;;;;;10.82;100.00;100951.44;2070972;28;20141;-72
2023/04/07 03:20:59;;;;;;;9.50;2.97;;;;;;;10.81;100.00;100955.81;2069231;28;20049;-73
2023/04/07 03:22:22;;;;;;;7.80;2.60;;;;;;;10.85;100.00;100948.81;2067816;28;20050;-72
2023/04/07 03:23:47;;;;;;;8.13;3.08;;;;;;;10.89;100.00;100954.22;2068854;28;20061;-72
2023/04/07 03:25:09;;;;;;;11.18;3.38;;;;;;;10.93;100.00;100949.84;2066988;28;20355;-72
2023/04/07 03:26:31;;;;;;;9.80;3.70;;;;;;;10.90;100.00;100948.03;2067740;28;20073;-72
2023/04/07 03:27:54;;;;;;;9.82;3.10;;;;;;;10.88;100.00;100955.06;2066061;28;20053;-72
2023/04/07 03:29:16;;;;;;;8.82;4.28;;;;;;;10.85;100.00;100948.81;2070288;28;20372;-73
2023/04/07 03:30:39;;;;;;;9.70;4.35;;;;;;;10.84;100.00;100949.69;2067384;28;20145;-71
2023/04/07 03:32:01;;;;;;;7.97;3.55;;;;;;;10.82;100.00;100952.31;2065969;28;20144;-72
2023/04/07 03:33:25;;;;;;;7.50;3.28;;;;;;;10.78;100.00;100954.00;2074212;28;20038;-72
2023/04/07 03:34:48;;;;;;;6.85;3.15;;;;;;;10.78;100.00;100953.09;2070759;28;20049;-72
2023/04/07 03:36:12;;;;;;;10.80;3.42;;;;;;;10.80;100.00;100948.75;2070458;28;20146;-72
2023/04/07 03:37:36;;;;;;;7.22;3.33;;;;;;;10.83;100.00;100953.22;2068172;28;20060;-72
2023/04/07 03:38:58;;;;;;;8.10;3.65;;;;;;;10.84;100.00;100950.56;2068179;28;20061;-72
2023/04/07 03:40:21;;;;;;;11.60;3.95;;;;;;;10.81;100.00;100945.25;2075213;28;20409;-72
2023/04/07 03:41:42;;;;;;;9.27;3.40;;;;;;;10.81;100.00;100947.00;2070026;28;20045;-72
2023/04/07 03:43:05;;;;;;;9.43;2.97;;;;;;;10.81;100.00;100950.53;2070217;28;20695;-72
2023/04/07 03:44:26;;;;;;;7.43;2.33;;;;;;;10.86;100.00;100953.25;2065428;28;20092;-72
2023/04/07 03:45:49;;;;;;;9.52;3.10;;;;;;;10.90;100.00;100949.78;2069402;28;20469;-72
2023/04/07 03:47:13;;;;;;;10.65;3.40;;;;;;;10.94;100.00;100956.91;2070530;28;20053;-72
2023/04/07 03:48:37;;;;;;;9.23;3.03;;;;;;;10.95;100.00;100964.88;2067694;28;20045;-72
2023/04/07 03:50:05;;;;;;;7.35;3.28;;;;;;;10.91;100.00;100962.13;2070667;28;20042;-72
2023/04/07 03:51:33;;;;;;;8.35;3.35;;;;;;;10.82;100.00;100960.25;2069346;28;20046;-72
2023/04/07 03:52:56;;;;;;;16.08;5.10;;;;;;;10.79;100.00;100957.53;2062409;28;20081;-72
2023/04/07 03:54:22;;;;;;;11.30;4.22;;;;;;;10.76;100.00;100957.50;2064366;28;20054;-72
2023/04/07 03:55:43;;;;;;;16.23;7.50;;;;;;;10.74;100.00;100967.13;2066354;28;20042;-72
2023/04/07 03:57:15;;;;;;;8.48;4.38;;;;;;;10.73;100.00;100966.25;2069886;28;20042;-72
2023/04/07 03:58:41;;;;;;;11.43;3.58;;;;;;;10.72;100.00;100969.75;2076966;28;20057;-72
2023/04/07 04:00:10;;;;;;;11.65;4.88;;;;;;;10.73;100.00;100968.88;2068395;28;20137;-71
2023/04/07 04:01:55;;;;;;;15.80;12.80;;;;;;;10.69;100.00;100966.16;2072506;28;20046;-73
2023/04/07 04:03:17;;;;;;;23.30;18.42;;;;;;;10.67;100.00;100968.78;2064311;28;20401;-72
2023/04/07 04:04:51;;;;;;;20.92;16.60;;;;;;;10.66;100.00;100966.09;2068958;28;20050;-71
2023/04/07 04:06:13;;;;;;;14.70;11.13;;;;;;;10.66;100.00;100966.09;2060173;28;20046;-72
2023/04/07 04:07:35;;;;;;;20.63;17.75;;;;;;;10.70;100.00;100967.91;2071961;28;20049;-72
2023/04/07 04:08:59;;;;;;;19.90;16.15;;;;;;;10.73;100.00;100974.16;2078440;28;20077;-72
2023/04/07 04:10:22;;;;;;;24.58;17.45;;;;;;;10.74;100.00;100981.22;2070538;28;20049;-72
2023/04/07 04:11:46;;;;;;;14.57;11.63;;;;;;;10.76;100.00;100973.34;2068806;28;20104;-72
2023/04/07 04:13:10;;;;;;;24.50;20.63;;;;;;;10.79;100.00;100987.47;2061613;28;20046;-72
2023/04/07 04:14:32;;;;;;;16.20;13.05;;;;;;;10.82;100.00;100983.13;2067013;28;20133;-72
2023/04/07 04:15:56;;;;;;;16.27;13.50;;;;;;;10.79;100.00;100989.22;2064605;28;20546;-72
2023/04/07 04:17:19;;;;;;;15.10;10.77;;;;;;;10.83;100.00;100988.41;2064829;28;20055;-72
2023/04/07 04:18:41;;;;;;;19.25;16.38;;;;;;;10.90;100.00;100989.41;2059820;28;20105;-72
2023/04/07 04:20:10;;;;;;;18.20;11.82;;;;;;;10.92;100.00;100996.50;2075890;28;20521;-72
2023/04/07 04:21:42;;;;;;;12.93;6.43;;;;;;;10.74;100.00;100997.06;2079913;28;20065;-72
2023/04/07 04:23:05;;;;;;;8.07;4.90;;;;;;;10.64;100.00;100992.47;2077225;28;20041;-72
2023/04/07 04:24:27;;;;;;;8.80;4.22;;;;;;;10.53;100.00;100999.28;2068563;28;20050;-73
2023/04/07 04:25:53;;;;;;;9.50;3.80;;;;;;;10.53;100.00;101003.69;2070349;28;20483;-72
2023/04/07 04:27:16;;;;;;;10.57;3.50;;;;;;;10.53;100.00;100999.28;2070825;28;20055;-71
2023/04/07 04:28:40;;;;;;;12.00;4.68;;;;;;;10.56;100.00;100999.38;2071213;28;20253;-72
2023/04/07 04:30:05;;;;;;;14.90;8.70;;;;;;;10.65;100.00;101002.16;2061771;28;20068;-72
2023/04/07 04:31:44;;;;;;;10.98;4.85;;;;;;;10.74;100.00;101001.47;2070621;28;20128;-72
2023/04/07 04:33:06;;;;;;;8.55;4.55;;;;;;;10.79;100.00;101002.44;2065470;28;20501;-72
2023/04/07 04:34:48;;;;;;;8.93;4.72;;;;;;;10.83;100.00;101001.59;2071677;28;20045;-72
2023/04/07 04:36:13;;;;;;;9.30;5.90;;;;;;;10.89;100.00;101003.50;2069805;28;20057;-72
2023/04/07 04:37:35;;;;;;;12.20;6.38;;;;;;;10.93;100.00;101007.97;2069866;28;20793;-72
2023/04/07 04:39:00;;;;;;;11.35;7.97;;;;;;;10.95;100.00;101008.88;2066042;28;20046;-72
2023/04/07 04:40:25;;;;;;;11.63;5.50;;;;;;;10.96;100.00;101011.53;2068191;28;20046;-72
2023/04/07 04:41:48;;;;;;;9.82;4.97;;;;;;;10.96;100.00;101019.44;2061852;28;20097;-72
2023/04/07 04:43:10;;;;;;;10.13;4.55;;;;;;;10.98;100.00;101009.81;2068145;28;20070;-72
2023/04/07 04:44:35;;;;;;;9.50;4.05;;;;;;;11.04;100.00;101016.94;2065663;28;20072;-72
2023/04/07 04:45:58;;;;;;;9.63;4.45;;;;;;;11.08;100.00;101024.09;2069540;28;20422;-72
2023/04/07 04:47:23;;;;;;;12.63;5.60;;;;;;;11.09;100.00;101023.22;2067659;28;20145;-72
2023/04/07 04:48:46;;;;;;;10.02;4.63;;;;;;;11.04;100.00;101028.41;2076362;28;20038;-72
2023/04/07 04:50:08;;;;;;;10.95;4.68;;;;;;;11.04;100.00;101031.06;2076565;28;20180;-72
2023/04/07 04:51:34;;;;;;;12.18;4.38;;;;;;;11.05;100.00;101030.19;2069735;28;20058;-72
2023/04/07 04:53:05;;;;;;;7.50;3.97;;;;;;;11.09;100.00;101034.66;2068306;28;20502;-71
2023/04/07 04:54:28;;;;;;;9.90;3.95;;;;;;;11.17;100.00;101035.69;2066263;28;20052;-72
2023/04/07 04:55:52;;;;;;;10.63;3.83;;;;;;;11.27;100.00;101043.78;2067321;28;20375;-71
2023/04/07 04:57:17;;;;;;;10.13;3.70;;;;;;;11.37;100.00;101043.97;2070350;28;20132;-72
2023/04/07 04:58:44;;;;;;;11.25;3.40;;;;;;;11.51;100.00;101053.00;2064824;28;20077;-72
2023/04/07 05:00:11;;;;;;;7.85;3.10;;;;;;;11.70;100.00;101055.94;2069571;28;20049;-72
2023/04/07 05:01:35;;;;;;;6.88;3.33;;;;;;;11.88;100.00;101054.50;2073791;28;20038;-71
2023/04/07 05:03:03;;;;;;;7.80;2.88;;;;;;;12.10;100.00;101054.81;2066797;28;20057;-72
2023/04/07 05:04:28;;;;;;;8.52;2.72;;;;;;;12.30;100.00;101054.22;2069661;28;20037;-73
2023/04/07 05:05:56;;;;;;;6.68;3.00;;;;;;;12.45;100.00;101055.28;2065052;28;20879;-71
2023/04/07 05:07:20;;;;;;;7.03;4.07;;;;;;;12.56;100.00;101053.66;2074075;28;20490;-71
2023/04/07 05:08:43;;;;;;;10.38;7.38;;;;;;;12.66;100.00;101053.81;2073169;28;20066;-71
2023/04/07 05:10:07;;;;;;;11.30;7.22;;;;;;;12.81;100.00;101047.75;2070104;28;20053;-72
2023/04/07 05:11:32;;;;;;;10.48;4.78;;;;;;;12.88;100.00;101052.25;2069530;28;20851;-73
2023/04/07 05:12:55;;;;;;;10.63;5.20;;;;;;;12.93;100.00;101052.34;2071968;28;20058;-72
2023/04/07 05:14:17;;;;;;;9.40;4.85;;;;;;;12.94;100.00;101051.44;2074589;28;20383;-72
2023/04/07 05:15:49;;;;;;;12.00;5.18;;;;;;;12.81;100.00;101046.88;2070685;28;20553;-71
2023/04/07 05:17:11;;;;;;;8.52;4.22;;;;;;;12.75;100.00;101048.59;2066500;28;20054;-71
2023/04/07 05:18:34;;;;;;;9.75;4.90;;;;;;;12.75;100.00;101051.25;2068581;28;20371;-72
2023/04/07 05:19:57;;;;;;;8.77;4.05;;;;;;;12.78;100.00;101047.75;2061440;28;20042;-72
2023/04/07 05:21:29;;;;;;;9.75;3.67;;;;;;;12.86;100.00;101046.09;2069304;28;20557;-72
2023/04/07 05:22:56;;;;;;;8.68;4.97;;;;;;;12.92;100.00;101046.16;2066558;28;20577;-72
2023/04/07 05:24:25;;;;;;;10.00;4.70;;;;;;;12.92;100.00;101042.59;2061887;28;20054;-72
2023/04/07 05:25:51;;;;;;;11.70;4.50;;;;;;;12.90;100.00;101039.94;2067979;28;20153;-72
2023/04/07 05:27:14;;;;;;;12.75;7.35;;;;;;;12.94;100.00;101043.47;2077670;28;20045;-72
2023/04/07 05:28:37;;;;;;;11.93;5.05;;;;;;;12.94;100.00;101054.09;2067357;28;20517;-72
2023/04/07 05:30:07;;;;;;;13.70;5.07;;;;;;;12.87;100.00;101042.53;2060027;28;20074;-73
2023/04/07 05:31:31;;;;;;;10.82;3.88;;;;;;;12.97;100.00;101048.84;2064681;28;20062;-72
2023/04/07 05:32:55;;;;;;;9.57;3.40;;;;;;;13.16;100.00;101050.81;2067432;28;20052;-72
2023/04/07 05:34:38;;;;;;;9.95;3.85;;;;;;;13.45;100.00;101049.34;2071653;28;20136;-72
2023/04/07 05:36:01;;;;;;;7.45;2.80;;;;;;;13.72;100.00;101058.41;2069555;28;20145;-72
2023/04/07 05:37:23;;;;;;;8.45;3.00;;;;;;;13.96;100.00;101054.13;2059445;28;20462;-72
2023/04/07 05:38:47;;;;;;;8.02;3.63;;;;;;;14.14;100.00;101052.47;2070017;28;20045;-72
2023/04/07 05:40:14;;;;;;;8.77;3.28;;;;;;;14.26;100.00;101055.19;2070102;28;20052;-72
2023/04/07 05:41:36;;;;;;;8.23;2.97;;;;;;;14.42;100.00;101048.22;2075220;28;20053;-73
2023/04/07 05:42:59;;;;;;;12.43;2.90;;;;;;;14.59;100.00;101042.09;2063718;28;20077;-73
2023/04/07 05:44:24;;;;;;;7.35;2.60;;;;;;;14.74;100.00;101052.78;2068762;28;20045;-72
2023/04/07 05:45:48;;;;;;;7.32;3.10;;;;;;;14.79;100.00;101044.81;2074862;28;20064;-73
2023/04/07 05:47:10;;;;;;;7.97;3.42;;;;;;;14.81;100.00;101045.72;2068242;28;20533;-73
2023/04/07 05:48:33;;;;;;;6.80;2.97;;;;;;;14.85;100.00;101050.13;2066212;28;20791;-72
2023/04/07 05:49:56;;;;;;;9.77;3.72;;;;;;;14.84;100.00;101052.78;2069516;28;20490;-72
2023/04/07 05:51:18;;;;;;;11.70;3.92;;;;;;;14.79;100.00;101057.19;2067034;28;20042;-73
2023/04/07 05:52:41;;;;;;;9.32;3.40;;;;;;;14.69;100.00;101049.22;2069347;28;20083;-72
2023/04/07 05:54:14;;;;;;;10.57;3.17;;;;;;;14.56;100.00;101059.81;2065414;28;20058;-73
2023/04/07 05:55:38;;;;;;;10.13;3.33;;;;;;;14.42;100.00;101058.84;2070847;28;20132;-73
2023/04/07 05:57:03;;;;;;;12.93;3.58;;;;;;;14.31;100.00;101056.97;2065455;28;20054;-73
2023/04/07 05:58:28;;;;;;;11.05;3.70;;;;;;;14.25;100.00;101056.94;2074083;28;20542;-73
2023/04/07 05:59:51;;;;;;;9.75;3.50;;;;;;;14.18;100.00;101060.44;2068152;28;20136;-73
2023/04/07 06:01:13;;;;;;;10.55;3.83;;;;;;;14.13;100.00;101059.53;2065852;28;20084;-73
2023/04/07 06:02:35;;;;;;;12.05;3.55;;;;;;;14.10;100.00;101056.00;2072192;28;20567;-72
2023/04/07 06:03:57;;;;;;;10.25;3.80;;;;;;;14.20;100.00;101066.66;2068946;28;20521;-72
2023/04/07 06:05:21;;;;;;;9.02;2.90;;;;;;;14.39;100.00;101064.13;2065603;28;20046;-72
2023/04/07 06:06:47;;;;;;;10.27;3.05;;;;;;;14.53;100.00;101068.63;2069359;28;20418;-73
2023/04/07 06:08:09;;;;;;;11.95;3.53;;;;;;;14.62;100.00;101063.38;2073473;28;20076;-72
2023/04/07 06:09:33;;;;;;;13.80;3.28;;;;;;;14.85;100.00;101058.13;2063442;28;20046;-73
2023/04/07 06:10:56;;;;;;;11.73;3.03;;;;;;;15.11;100.00;101061.72;2071441;28;20041;-74
2023/04/07 06:12:19;;;;;;;8.82;2.83;;;;;;;15.37;100.00;101055.53;2078274;28;20048;-73
2023/04/07 06:13:40;;;;;;;7.57;3.13;;;;;;;15.53;100.00;101062.69;2075489;28;20041;-73
2023/04/07 06:15:04;;;;;;;8.32;2.90;;;;;;;15.64;100.00;101065.34;2067968;28;20709;-73
2023/04/07 06:16:27;;;;;;;9.40;3.15;;;;;;;15.80;100.00;101056.47;2074456;28;20045;-72
2023/04/07 06:17:50;;;;;;;10.65;2.50;;;;;;;15.94;100.00;101066.22;2066796;28;20457;-73
2023/04/07 06:19:13;;;;;;;8.32;2.50;;;;;;;16.13;100.00;101055.53;2074399;28;20073;-73
2023/04/07 06:20:34;;;;;;;7.57;2.00;;;;;;;16.15;100.00;101057.28;2065616;28;20049;-72
2023/04/07 06:21:57;;;;;;;10.07;2.58;;;;;;;16.00;100.00;101053.78;2080800;28;20132;-72
2023/04/07 06:23:19;;;;;;;10.07;3.35;;;;;;;15.85;100.00;101057.34;2067415;28;20563;-71
2023/04/07 06:24:43;;;;;;;9.90;2.92;;;;;;;15.86;100.00;101060.00;2069101;28;20072;-73
2023/04/07 06:26:05;;;;;;;8.68;2.92;;;;;;;16.03;100.00;101059.09;2063501;28;20057;-73